Terminal Aerodrome Forecast
Issued by NWS Buffalo, NY

Current Version | Previous Version | Text Only | Print | Product List | Glossary On
Versions: 1 2 3 4 5 6 7 8 9 10 11 12 13 14 15 16 17 18
000
FTUS41 KBUF 251501 AAA
TAFROC
TAF AMD
KROC 251501Z 2515/2612 19013KT P6SM SCT110
     FM251800 22012G20KT P6SM VCSH BKN060
     FM252200 23012KT P6SM BKN080
     FM260900 23011KT P6SM BKN200=

USA.gov is the U.S. government's official web portal to all federal, state and local government web resources and services.